Terminal Aerodrome Forecast
Issued by NWS

Home | Current Version | Previous Version | Text Only | Print | Product List | Glossary On
Versions: 1 2 3 4 5 6 7 8 9 10 11 12 13 14 15 16 17 18 19 20 21 22 23 24 25 26 27 28 29 30 31
216
FTUS41 KALY 011123
TAFPSF
TAF
KPSF 011123Z 0112/0212 03007KT P6SM OVC014
     FM011700 05004KT 4SM -DZ BR OVC010
     FM020200 05004KT 4SM -RA BR OVC009
     FM020600 00000KT 4SM -RA BR OVC003=

USA.gov is the U.S. government's official web portal to all federal, state and local government web resources and services.